sensor_id;sensor_type;location;lat;lon;timestamp;temperature;humidity
14008;DHT22;61651;45.508;12.232;2024-02-28T00:00:02;13.70;99.90
14008;DHT22;61651;45.508;12.232;2024-02-28T00:03:06;13.70;99.90
14008;DHT22;61651;45.508;12.232;2024-02-28T00:06:07;13.80;99.90
14008;DHT22;61651;45.508;12.232;2024-02-28T00:09:10;13.70;99.90
14008;DHT22;61651;45.508;12.232;2024-02-28T00:12:12;13.70;99.90
14008;DHT22;61651;45.508;12.232;2024-02-28T00:15:15;13.80;99.90
14008;DHT22;61651;45.508;12.232;2024-02-28T00:18:19;13.80;99.90
14008;DHT22;61651;45.508;12.232;2024-02-28T00:21:21;13.80;99.90
14008;DHT22;61651;45.508;12.232;2024-02-28T00:24:23;13.70;99.90
14008;DHT22;61651;45.508;12.232;2024-02-28T00:27:25;13.70;99.90
14008;DHT22;61651;45.508;12.232;2024-02-28T00:30:27;13.80;99.90
14008;DHT22;61651;45.508;12.232;2024-02-28T00:33:31;13.80;99.90
14008;DHT22;61651;45.508;12.232;2024-02-28T00:36:33;13.70;99.90
14008;DHT22;61651;45.508;12.232;2024-02-28T00:39:35;13.70;99.90
14008;DHT22;61651;45.508;12.232;2024-02-28T00:42:38;13.80;99.90
14008;DHT22;61651;45.508;12.232;2024-02-28T00:45:40;13.80;99.90
14008;DHT22;61651;45.508;12.232;2024-02-28T00:48:43;13.80;99.90
14008;DHT22;61651;45.508;12.232;2024-02-28T00:51:46;13.90;99.90
14008;DHT22;61651;45.508;12.232;2024-02-28T00:54:48;13.80;99.90
14008;DHT22;61651;45.508;12.232;2024-02-28T00:57:50;13.90;99.90
14008;DHT22;61651;45.508;12.232;2024-02-28T01:00:52;13.80;99.90
14008;DHT22;61651;45.508;12.232;2024-02-28T01:03:55;13.80;99.90
14008;DHT22;61651;45.508;12.232;2024-02-28T01:06:57;13.90;99.90
14008;DHT22;61651;45.508;12.232;2024-02-28T01:09:59;13.90;99.90
14008;DHT22;61651;45.508;12.232;2024-02-28T01:13:01;13.90;99.90
14008;DHT22;61651;45.508;12.232;2024-02-28T01:16:04;13.90;99.90
14008;DHT22;61651;45.508;12.232;2024-02-28T01:19:07;13.90;99.90
14008;DHT22;61651;45.508;12.232;2024-02-28T01:22:09;13.90;99.90
14008;DHT22;61651;45.508;12.232;2024-02-28T01:25:12;13.80;99.90
14008;DHT22;61651;45.508;12.232;2024-02-28T01:28:14;13.80;99.90
14008;DHT22;61651;45.508;12.232;2024-02-28T01:31:16;13.90;99.90
14008;DHT22;61651;45.508;12.232;2024-02-28T01:34:19;13.80;99.90
14008;DHT22;61651;45.508;12.232;2024-02-28T01:37:21;13.80;99.90
14008;DHT22;61651;45.508;12.232;2024-02-28T01:40:23;13.80;99.90
14008;DHT22;61651;45.508;12.232;2024-02-28T01:43:25;13.80;99.90
14008;DHT22;61651;45.508;12.232;2024-02-28T01:46:28;13.80;99.90
14008;DHT22;61651;45.508;12.232;2024-02-28T01:49:33;13.70;99.90
14008;DHT22;61651;45.508;12.232;2024-02-28T01:52:36;13.70;99.90
14008;DHT22;61651;45.508;12.232;2024-02-28T01:55:38;13.80;99.90
14008;DHT22;61651;45.508;12.232;2024-02-28T01:58:40;13.80;99.90
14008;DHT22;61651;45.508;12.232;2024-02-28T02:01:43;13.80;99.90
14008;DHT22;61651;45.508;12.232;2024-02-28T02:04:46;13.80;99.90
14008;DHT22;61651;45.508;12.232;2024-02-28T02:07:48;13.80;99.90
14008;DHT22;61651;45.508;12.232;2024-02-28T02:10:50;13.80;99.90
14008;DHT22;61651;45.508;12.232;2024-02-28T02:13:53;13.70;99.90
14008;DHT22;61651;45.508;12.232;2024-02-28T02:16:55;13.80;99.90
14008;DHT22;61651;45.508;12.232;2024-02-28T02:19:59;13.70;99.90
14008;DHT22;61651;45.508;12.232;2024-02-28T02:23:02;13.70;99.90
14008;DHT22;61651;45.508;12.232;2024-02-28T02:26:05;13.70;99.90
14008;DHT22;61651;45.508;12.232;2024-02-28T02:29:07;13.70;99.90
14008;DHT22;61651;45.508;12.232;2024-02-28T02:32:10;13.60;99.90
14008;DHT22;61651;45.508;12.232;2024-02-28T02:35:12;13.60;99.90
14008;DHT22;61651;45.508;12.232;2024-02-28T02:38:15;13.70;99.90
14008;DHT22;61651;45.508;12.232;2024-02-28T02:41:18;13.70;99.90
14008;DHT22;61651;45.508;12.232;2024-02-28T02:44:20;13.80;99.90
14008;DHT22;61651;45.508;12.232;2024-02-28T02:47:22;13.70;99.90
14008;DHT22;61651;45.508;12.232;2024-02-28T02:50:24;13.70;99.90
14008;DHT22;61651;45.508;12.232;2024-02-28T02:53:28;13.70;99.90
14008;DHT22;61651;45.508;12.232;2024-02-28T02:56:30;13.70;99.90
14008;DHT22;61651;45.508;12.232;2024-02-28T02:59:32;13.70;99.90
14008;DHT22;61651;45.508;12.232;2024-02-28T03:02:34;13.70;99.90
14008;DHT22;61651;45.508;12.232;2024-02-28T03:05:38;13.70;99.90
14008;DHT22;61651;45.508;12.232;2024-02-28T03:08:41;13.70;99.90
14008;DHT22;61651;45.508;12.232;2024-02-28T03:11:43;13.70;99.90
14008;DHT22;61651;45.508;12.232;2024-02-28T03:14:45;13.80;99.90
14008;DHT22;61651;45.508;12.232;2024-02-28T03:17:47;13.60;99.90
14008;DHT22;61651;45.508;12.232;2024-02-28T03:20:49;13.60;99.90
14008;DHT22;61651;45.508;12.232;2024-02-28T03:23:53;13.70;99.90
14008;DHT22;61651;45.508;12.232;2024-02-28T03:26:55;13.70;99.90
14008;DHT22;61651;45.508;12.232;2024-02-28T03:29:57;13.70;99.90
14008;DHT22;61651;45.508;12.232;2024-02-28T03:32:59;13.70;99.90
14008;DHT22;61651;45.508;12.232;2024-02-28T03:36:01;13.70;99.90
14008;DHT22;61651;45.508;12.232;2024-02-28T03:39:04;13.70;99.90
14008;DHT22;61651;45.508;12.232;2024-02-28T03:42:07;13.80;99.90
14008;DHT22;61651;45.508;12.232;2024-02-28T03:45:09;13.70;99.90
14008;DHT22;61651;45.508;12.232;2024-02-28T03:48:11;13.80;99.90
14008;DHT22;61651;45.508;12.232;2024-02-28T03:51:13;13.80;99.90
14008;DHT22;61651;45.508;12.232;2024-02-28T03:54:18;13.70;99.90
14008;DHT22;61651;45.508;12.232;2024-02-28T03:57:20;13.70;99.90
14008;DHT22;61651;45.508;12.232;2024-02-28T04:00:22;13.70;99.90
14008;DHT22;61651;45.508;12.232;2024-02-28T04:03:26;13.70;99.90
14008;DHT22;61651;45.508;12.232;2024-02-28T04:06:28;13.80;99.90
14008;DHT22;61651;45.508;12.232;2024-02-28T04:09:31;13.80;99.90
14008;DHT22;61651;45.508;12.232;2024-02-28T04:12:33;13.80;99.90
14008;DHT22;61651;45.508;12.232;2024-02-28T04:15:35;13.70;99.90
14008;DHT22;61651;45.508;12.232;2024-02-28T04:18:38;13.70;99.90
14008;DHT22;61651;45.508;12.232;2024-02-28T04:21:40;13.60;99.90
14008;DHT22;61651;45.508;12.232;2024-02-28T04:24:43;13.60;99.90
14008;DHT22;61651;45.508;12.232;2024-02-28T04:27:45;13.60;99.90
14008;DHT22;61651;45.508;12.232;2024-02-28T04:30:48;13.70;99.90
14008;DHT22;61651;45.508;12.232;2024-02-28T04:33:50;13.60;99.90
14008;DHT22;61651;45.508;12.232;2024-02-28T04:36:52;13.60;99.90
14008;DHT22;61651;45.508;12.232;2024-02-28T04:39:55;13.60;99.90
14008;DHT22;61651;45.508;12.232;2024-02-28T04:42:57;13.70;99.90
14008;DHT22;61651;45.508;12.232;2024-02-28T04:45:59;13.60;99.90
14008;DHT22;61651;45.508;12.232;2024-02-28T04:49:01;13.60;99.90
14008;DHT22;61651;45.508;12.232;2024-02-28T04:52:03;13.70;99.90
14008;DHT22;61651;45.508;12.232;2024-02-28T04:55:07;13.70;99.90
14008;DHT22;61651;45.508;12.232;2024-02-28T04:58:09;13.60;99.90
14008;DHT22;61651;45.508;12.232;2024-02-28T05:01:11;13.60;99.90
14008;DHT22;61651;45.508;12.232;2024-02-28T05:04:14;13.60;99.90
14008;DHT22;61651;45.508;12.232;2024-02-28T05:07:16;13.70;99.90
14008;DHT22;61651;45.508;12.232;2024-02-28T05:10:19;13.70;99.90
14008;DHT22;61651;45.508;12.232;2024-02-28T05:13:21;13.70;99.90
14008;DHT22;61651;45.508;12.232;2024-02-28T05:16:24;13.70;99.90
14008;DHT22;61651;45.508;12.232;2024-02-28T05:19:26;13.70;99.90
14008;DHT22;61651;45.508;12.232;2024-02-28T05:22:28;13.70;99.90
14008;DHT22;61651;45.508;12.232;2024-02-28T05:25:32;13.70;99.90
14008;DHT22;61651;45.508;12.232;2024-02-28T05:28:34;13.70;99.90
14008;DHT22;61651;45.508;12.232;2024-02-28T05:31:36;13.80;99.90
14008;DHT22;61651;45.508;12.232;2024-02-28T05:34:38;13.70;99.90
14008;DHT22;61651;45.508;12.232;2024-02-28T05:37:41;13.80;99.90
14008;DHT22;61651;45.508;12.232;2024-02-28T05:40:44;13.70;99.90
14008;DHT22;61651;45.508;12.232;2024-02-28T05:43:47;13.70;99.90
14008;DHT22;61651;45.508;12.232;2024-02-28T05:46:49;13.70;99.90
14008;DHT22;61651;45.508;12.232;2024-02-28T05:49:51;13.80;99.90
14008;DHT22;61651;45.508;12.232;2024-02-28T05:52:53;13.70;99.90
14008;DHT22;61651;45.508;12.232;2024-02-28T05:55:57;13.70;99.90
14008;DHT22;61651;45.508;12.232;2024-02-28T05:58:58;13.70;99.90
14008;DHT22;61651;45.508;12.232;2024-02-28T06:02:00;13.70;99.90
14008;DHT22;61651;45.508;12.232;2024-02-28T06:05:03;13.70;99.90
14008;DHT22;61651;45.508;12.232;2024-02-28T06:08:06;13.70;99.90
14008;DHT22;61651;45.508;12.232;2024-02-28T06:11:09;13.70;99.90
14008;DHT22;61651;45.508;12.232;2024-02-28T06:14:11;13.80;99.90
14008;DHT22;61651;45.508;12.232;2024-02-28T06:17:13;13.80;99.90
14008;DHT22;61651;45.508;12.232;2024-02-28T06:20:15;13.80;99.90
14008;DHT22;61651;45.508;12.232;2024-02-28T06:23:17;13.80;99.90
14008;DHT22;61651;45.508;12.232;2024-02-28T06:26:21;13.80;99.90
14008;DHT22;61651;45.508;12.232;2024-02-28T06:29:23;13.80;99.90
14008;DHT22;61651;45.508;12.232;2024-02-28T06:32:25;13.80;99.90
14008;DHT22;61651;45.508;12.232;2024-02-28T06:35:27;13.90;99.90
14008;DHT22;61651;45.508;12.232;2024-02-28T06:38:29;13.90;99.90
14008;DHT22;61651;45.508;12.232;2024-02-28T06:41:32;13.90;99.90
14008;DHT22;61651;45.508;12.232;2024-02-28T06:44:34;13.90;99.90
14008;DHT22;61651;45.508;12.232;2024-02-28T06:47:36;14.00;99.90
14008;DHT22;61651;45.508;12.232;2024-02-28T06:50:38;14.00;99.90
14008;DHT22;61651;45.508;12.232;2024-02-28T06:53:40;14.10;99.90
14008;DHT22;61651;45.508;12.232;2024-02-28T06:56:44;14.10;99.90
14008;DHT22;61651;45.508;12.232;2024-02-28T06:59:46;14.10;99.90
14008;DHT22;61651;45.508;12.232;2024-02-28T07:02:49;14.10;99.90
14008;DHT22;61651;45.508;12.232;2024-02-28T07:05:51;14.10;99.90
14008;DHT22;61651;45.508;12.232;2024-02-28T07:08:53;14.10;99.90
14008;DHT22;61651;45.508;12.232;2024-02-28T07:11:57;14.00;99.90
14008;DHT22;61651;45.508;12.232;2024-02-28T07:14:59;14.10;99.90
14008;DHT22;61651;45.508;12.232;2024-02-28T07:18:01;14.10;99.90
14008;DHT22;61651;45.508;12.232;2024-02-28T07:21:03;14.10;99.90
14008;DHT22;61651;45.508;12.232;2024-02-28T07:24:07;14.20;99.90
14008;DHT22;61651;45.508;12.232;2024-02-28T07:27:10;14.20;99.90
14008;DHT22;61651;45.508;12.232;2024-02-28T07:30:13;14.20;99.90
14008;DHT22;61651;45.508;12.232;2024-02-28T07:33:15;14.20;99.90
14008;DHT22;61651;45.508;12.232;2024-02-28T07:36:17;14.20;99.90
14008;DHT22;61651;45.508;12.232;2024-02-28T07:39:19;14.20;99.90
14008;DHT22;61651;45.508;12.232;2024-02-28T07:42:23;14.30;99.90
14008;DHT22;61651;45.508;12.232;2024-02-28T07:45:25;14.30;99.90
14008;DHT22;61651;45.508;12.232;2024-02-28T07:48:27;14.30;99.90
14008;DHT22;61651;45.508;12.232;2024-02-28T07:51:29;14.30;99.90
14008;DHT22;61651;45.508;12.232;2024-02-28T07:54:31;14.40;99.90
14008;DHT22;61651;45.508;12.232;2024-02-28T07:57:34;14.40;99.90
14008;DHT22;61651;45.508;12.232;2024-02-28T08:00:36;14.40;99.90
14008;DHT22;61651;45.508;12.232;2024-02-28T08:03:38;14.40;99.90
14008;DHT22;61651;45.508;12.232;2024-02-28T08:06:41;14.50;99.90
14008;DHT22;61651;45.508;12.232;2024-02-28T08:09:43;14.50;99.90
14008;DHT22;61651;45.508;12.232;2024-02-28T08:12:46;14.50;99.90
14008;DHT22;61651;45.508;12.232;2024-02-28T08:15:48;14.50;99.90
14008;DHT22;61651;45.508;12.232;2024-02-28T08:18:50;14.50;99.90
14008;DHT22;61651;45.508;12.232;2024-02-28T08:21:52;14.50;99.90
14008;DHT22;61651;45.508;12.232;2024-02-28T08:24:54;14.50;99.90
14008;DHT22;61651;45.508;12.232;2024-02-28T08:27:58;14.50;99.90
14008;DHT22;61651;45.508;12.232;2024-02-28T08:31:00;14.50;99.90
14008;DHT22;61651;45.508;12.232;2024-02-28T08:34:02;14.50;99.90
14008;DHT22;61651;45.508;12.232;2024-02-28T08:37:05;14.60;99.90
14008;DHT22;61651;45.508;12.232;2024-02-28T08:40:08;14.60;99.90
14008;DHT22;61651;45.508;12.232;2024-02-28T08:43:11;14.60;99.90
14008;DHT22;61651;45.508;12.232;2024-02-28T08:46:14;14.60;99.90
14008;DHT22;61651;45.508;12.232;2024-02-28T08:49:16;14.60;99.90
14008;DHT22;61651;45.508;12.232;2024-02-28T08:52:19;14.70;99.90
14008;DHT22;61651;45.508;12.232;2024-02-28T08:55:21;14.70;99.90
14008;DHT22;61651;45.508;12.232;2024-02-28T08:58:24;14.70;99.90
14008;DHT22;61651;45.508;12.232;2024-02-28T09:01:26;14.80;99.90
14008;DHT22;61651;45.508;12.232;2024-02-28T09:04:28;14.80;99.90
14008;DHT22;61651;45.508;12.232;2024-02-28T09:07:31;14.90;99.90
14008;DHT22;61651;45.508;12.232;2024-02-28T09:10:33;14.90;99.90
14008;DHT22;61651;45.508;12.232;2024-02-28T09:13:37;14.80;99.90
14008;DHT22;61651;45.508;12.232;2024-02-28T09:16:39;14.80;99.90
14008;DHT22;61651;45.508;12.232;2024-02-28T09:19:41;14.80;99.90
14008;DHT22;61651;45.508;12.232;2024-02-28T09:22:43;14.90;99.90
14008;DHT22;61651;45.508;12.232;2024-02-28T09:25:45;15.00;99.90
14008;DHT22;61651;45.508;12.232;2024-02-28T09:28:48;15.00;99.90
14008;DHT22;61651;45.508;12.232;2024-02-28T09:31:51;14.90;99.90
14008;DHT22;61651;45.508;12.232;2024-02-28T09:34:53;15.00;99.90
14008;DHT22;61651;45.508;12.232;2024-02-28T09:37:55;15.10;99.90
14008;DHT22;61651;45.508;12.232;2024-02-28T09:40:57;15.10;99.90
14008;DHT22;61651;45.508;12.232;2024-02-28T09:44:02;15.20;99.90
14008;DHT22;61651;45.508;12.232;2024-02-28T09:47:04;15.20;99.90
14008;DHT22;61651;45.508;12.232;2024-02-28T09:50:07;15.30;99.90
14008;DHT22;61651;45.508;12.232;2024-02-28T09:53:10;15.40;99.90
14008;DHT22;61651;45.508;12.232;2024-02-28T09:56:12;15.30;99.90
14008;DHT22;61651;45.508;12.232;2024-02-28T09:59:15;15.40;99.90
14008;DHT22;61651;45.508;12.232;2024-02-28T10:02:20;15.40;99.90
14008;DHT22;61651;45.508;12.232;2024-02-28T10:05:23;15.30;99.90
14008;DHT22;61651;45.508;12.232;2024-02-28T10:08:27;15.30;99.90
14008;DHT22;61651;45.508;12.232;2024-02-28T10:11:29;15.40;99.90
14008;DHT22;61651;45.508;12.232;2024-02-28T10:14:33;15.30;99.90
14008;DHT22;61651;45.508;12.232;2024-02-28T10:17:35;15.30;99.90
14008;DHT22;61651;45.508;12.232;2024-02-28T10:20:37;15.20;99.90
14008;DHT22;61651;45.508;12.232;2024-02-28T10:23:41;15.20;99.90
14008;DHT22;61651;45.508;12.232;2024-02-28T10:26:43;15.20;99.90
14008;DHT22;61651;45.508;12.232;2024-02-28T10:29:47;15.20;99.90
14008;DHT22;61651;45.508;12.232;2024-02-28T10:32:49;15.30;99.90
14008;DHT22;61651;45.508;12.232;2024-02-28T10:35:52;15.30;99.90
14008;DHT22;61651;45.508;12.232;2024-02-28T10:38:55;15.40;99.90
14008;DHT22;61651;45.508;12.232;2024-02-28T10:42:00;15.50;99.90
14008;DHT22;61651;45.508;12.232;2024-02-28T10:45:04;15.50;99.90
14008;DHT22;61651;45.508;12.232;2024-02-28T10:48:07;15.60;99.90
14008;DHT22;61651;45.508;12.232;2024-02-28T10:51:10;15.60;99.90
14008;DHT22;61651;45.508;12.232;2024-02-28T10:54:19;15.70;99.90
14008;DHT22;61651;45.508;12.232;2024-02-28T10:57:24;15.70;99.90
14008;DHT22;61651;45.508;12.232;2024-02-28T11:00:28;15.80;99.90
14008;DHT22;61651;45.508;12.232;2024-02-28T11:03:31;15.90;99.90
14008;DHT22;61651;45.508;12.232;2024-02-28T11:06:33;16.00;99.90
14008;DHT22;61651;45.508;12.232;2024-02-28T11:09:35;16.00;99.90
14008;DHT22;61651;45.508;12.232;2024-02-28T11:12:37;16.10;99.90
14008;DHT22;61651;45.508;12.232;2024-02-28T11:15:41;16.20;99.90
14008;DHT22;61651;45.508;12.232;2024-02-28T11:18:48;16.20;99.90
14008;DHT22;61651;45.508;12.232;2024-02-28T11:21:54;16.20;99.90
14008;DHT22;61651;45.508;12.232;2024-02-28T11:24:56;16.30;99.90
14008;DHT22;61651;45.508;12.232;2024-02-28T11:28:01;16.30;99.90
14008;DHT22;61651;45.508;12.232;2024-02-28T11:31:04;16.30;99.90
14008;DHT22;61651;45.508;12.232;2024-02-28T11:34:06;16.30;99.90
14008;DHT22;61651;45.508;12.232;2024-02-28T11:37:09;16.30;99.90
14008;DHT22;61651;45.508;12.232;2024-02-28T11:40:11;16.30;99.90
14008;DHT22;61651;45.508;12.232;2024-02-28T11:43:13;16.30;99.90
14008;DHT22;61651;45.508;12.232;2024-02-28T11:46:17;16.40;99.90
14008;DHT22;61651;45.508;12.232;2024-02-28T11:49:19;16.50;99.90
14008;DHT22;61651;45.508;12.232;2024-02-28T11:52:21;16.60;99.90
14008;DHT22;61651;45.508;12.232;2024-02-28T11:55:25;16.70;99.90
14008;DHT22;61651;45.508;12.232;2024-02-28T11:58:27;16.70;99.90
14008;DHT22;61651;45.508;12.232;2024-02-28T12:01:35;16.80;99.90
14008;DHT22;61651;45.508;12.232;2024-02-28T12:04:37;16.80;99.90
14008;DHT22;61651;45.508;12.232;2024-02-28T12:07:41;16.70;99.90
14008;DHT22;61651;45.508;12.232;2024-02-28T12:10:43;16.70;99.90
14008;DHT22;61651;45.508;12.232;2024-02-28T12:13:45;16.60;99.90
14008;DHT22;61651;45.508;12.232;2024-02-28T12:16:49;16.60;99.90
14008;DHT22;61651;45.508;12.232;2024-02-28T12:19:52;16.70;99.90
14008;DHT22;61651;45.508;12.232;2024-02-28T12:22:54;16.90;99.90
14008;DHT22;61651;45.508;12.232;2024-02-28T12:25:56;17.00;99.90
14008;DHT22;61651;45.508;12.232;2024-02-28T12:28:58;17.20;99.90
14008;DHT22;61651;45.508;12.232;2024-02-28T12:32:01;17.20;99.90
14008;DHT22;61651;45.508;12.232;2024-02-28T12:35:04;17.30;99.90
14008;DHT22;61651;45.508;12.232;2024-02-28T12:38:07;17.40;99.90
14008;DHT22;61651;45.508;12.232;2024-02-28T12:41:10;17.40;99.90
14008;DHT22;61651;45.508;12.232;2024-02-28T12:44:12;17.40;99.90
14008;DHT22;61651;45.508;12.232;2024-02-28T12:47:15;17.40;99.90
14008;DHT22;61651;45.508;12.232;2024-02-28T12:50:17;17.30;99.90
14008;DHT22;61651;45.508;12.232;2024-02-28T12:53:21;17.40;99.90
14008;DHT22;61651;45.508;12.232;2024-02-28T12:56:23;17.40;99.90
14008;DHT22;61651;45.508;12.232;2024-02-28T12:59:25;17.50;99.90
14008;DHT22;61651;45.508;12.232;2024-02-28T13:02:29;17.60;99.90
14008;DHT22;61651;45.508;12.232;2024-02-28T13:05:31;17.70;99.90
14008;DHT22;61651;45.508;12.232;2024-02-28T13:08:33;17.70;99.90
14008;DHT22;61651;45.508;12.232;2024-02-28T13:11:35;17.80;99.90
14008;DHT22;61651;45.508;12.232;2024-02-28T13:14:37;18.00;99.90
14008;DHT22;61651;45.508;12.232;2024-02-28T13:17:41;18.00;99.90
14008;DHT22;61651;45.508;12.232;2024-02-28T13:20:43;18.10;99.90
14008;DHT22;61651;45.508;12.232;2024-02-28T13:23:45;18.10;99.90
14008;DHT22;61651;45.508;12.232;2024-02-28T13:26:47;18.10;99.90
14008;DHT22;61651;45.508;12.232;2024-02-28T13:29:49;18.10;99.90
14008;DHT22;61651;45.508;12.232;2024-02-28T13:32:52;18.00;99.90
14008;DHT22;61651;45.508;12.232;2024-02-28T13:35:54;18.00;99.90
14008;DHT22;61651;45.508;12.232;2024-02-28T13:38:56;18.00;99.90
14008;DHT22;61651;45.508;12.232;2024-02-28T13:41:59;17.90;99.90
14008;DHT22;61651;45.508;12.232;2024-02-28T13:45:01;17.80;99.90
14008;DHT22;61651;45.508;12.232;2024-02-28T13:48:16;17.80;99.90
14008;DHT22;61651;45.508;12.232;2024-02-28T13:51:19;17.90;99.90
14008;DHT22;61651;45.508;12.232;2024-02-28T13:54:21;17.90;99.90
14008;DHT22;61651;45.508;12.232;2024-02-28T13:57:23;18.00;99.90
14008;DHT22;61651;45.508;12.232;2024-02-28T14:00:25;18.10;99.90
14008;DHT22;61651;45.508;12.232;2024-02-28T14:03:28;18.30;99.90
14008;DHT22;61651;45.508;12.232;2024-02-28T14:06:30;18.50;99.90
14008;DHT22;61651;45.508;12.232;2024-02-28T14:09:32;18.70;99.90
14008;DHT22;61651;45.508;12.232;2024-02-28T14:12:34;18.80;99.90
14008;DHT22;61651;45.508;12.232;2024-02-28T14:15:36;18.80;99.90
14008;DHT22;61651;45.508;12.232;2024-02-28T14:18:40;18.90;99.90
14008;DHT22;61651;45.508;12.232;2024-02-28T14:21:42;19.00;99.90
14008;DHT22;61651;45.508;12.232;2024-02-28T14:24:44;19.10;99.90
14008;DHT22;61651;45.508;12.232;2024-02-28T14:27:46;19.20;99.90
14008;DHT22;61651;45.508;12.232;2024-02-28T14:30:48;19.30;99.90
14008;DHT22;61651;45.508;12.232;2024-02-28T14:33:52;19.20;99.90
14008;DHT22;61651;45.508;12.232;2024-02-28T14:36:55;19.20;99.90
14008;DHT22;61651;45.508;12.232;2024-02-28T14:39:57;19.20;99.90
14008;DHT22;61651;45.508;12.232;2024-02-28T14:42:59;19.10;99.90
14008;DHT22;61651;45.508;12.232;2024-02-28T14:46:01;19.10;99.90
14008;DHT22;61651;45.508;12.232;2024-02-28T14:49:05;19.00;99.90
14008;DHT22;61651;45.508;12.232;2024-02-28T14:52:07;18.90;99.90
14008;DHT22;61651;45.508;12.232;2024-02-28T14:55:10;18.90;99.90
14008;DHT22;61651;45.508;12.232;2024-02-28T14:58:12;18.80;99.90
14008;DHT22;61651;45.508;12.232;2024-02-28T15:01:14;18.80;99.90
14008;DHT22;61651;45.508;12.232;2024-02-28T15:04:18;18.80;99.90
14008;DHT22;61651;45.508;12.232;2024-02-28T15:07:20;18.80;99.90
14008;DHT22;61651;45.508;12.232;2024-02-28T15:10:22;18.90;99.90
14008;DHT22;61651;45.508;12.232;2024-02-28T15:13:24;18.90;99.90
14008;DHT22;61651;45.508;12.232;2024-02-28T15:16:26;18.90;99.90
14008;DHT22;61651;45.508;12.232;2024-02-28T15:19:29;18.90;99.90
14008;DHT22;61651;45.508;12.232;2024-02-28T15:22:31;18.80;99.90
14008;DHT22;61651;45.508;12.232;2024-02-28T15:25:34;18.70;99.90
14008;DHT22;61651;45.508;12.232;2024-02-28T15:28:37;18.70;99.90
14008;DHT22;61651;45.508;12.232;2024-02-28T15:31:39;18.50;99.90
14008;DHT22;61651;45.508;12.232;2024-02-28T15:34:42;18.50;99.90
14008;DHT22;61651;45.508;12.232;2024-02-28T15:37:44;18.50;99.90
14008;DHT22;61651;45.508;12.232;2024-02-28T15:40:46;18.40;99.90
14008;DHT22;61651;45.508;12.232;2024-02-28T15:43:48;18.40;99.90
14008;DHT22;61651;45.508;12.232;2024-02-28T15:46:50;18.40;99.90
14008;DHT22;61651;45.508;12.232;2024-02-28T15:49:54;18.30;99.90
14008;DHT22;61651;45.508;12.232;2024-02-28T15:52:56;18.30;99.90
14008;DHT22;61651;45.508;12.232;2024-02-28T15:55:58;18.20;99.90
14008;DHT22;61651;45.508;12.232;2024-02-28T15:59:00;18.20;99.90
14008;DHT22;61651;45.508;12.232;2024-02-28T16:02:03;18.20;99.90
14008;DHT22;61651;45.508;12.232;2024-02-28T16:05:07;18.10;99.90
14008;DHT22;61651;45.508;12.232;2024-02-28T16:08:09;18.10;99.90
14008;DHT22;61651;45.508;12.232;2024-02-28T16:11:11;18.00;99.90
14008;DHT22;61651;45.508;12.232;2024-02-28T16:14:13;18.00;99.90
14008;DHT22;61651;45.508;12.232;2024-02-28T16:17:15;17.90;99.90
14008;DHT22;61651;45.508;12.232;2024-02-28T16:20:19;17.90;99.90
14008;DHT22;61651;45.508;12.232;2024-02-28T16:23:21;17.80;99.90
14008;DHT22;61651;45.508;12.232;2024-02-28T16:26:23;17.70;99.90
14008;DHT22;61651;45.508;12.232;2024-02-28T16:29:25;17.60;99.90
14008;DHT22;61651;45.508;12.232;2024-02-28T16:32:27;17.60;99.90
14008;DHT22;61651;45.508;12.232;2024-02-28T16:35:32;17.50;99.90
14008;DHT22;61651;45.508;12.232;2024-02-28T16:38:34;17.40;99.90
14008;DHT22;61651;45.508;12.232;2024-02-28T16:41:37;17.30;99.90
14008;DHT22;61651;45.508;12.232;2024-02-28T16:44:39;17.30;99.90
14008;DHT22;61651;45.508;12.232;2024-02-28T16:47:42;17.30;99.90
14008;DHT22;61651;45.508;12.232;2024-02-28T16:50:45;17.20;99.90
14008;DHT22;61651;45.508;12.232;2024-02-28T16:53:47;17.20;99.90
14008;DHT22;61651;45.508;12.232;2024-02-28T16:56:49;17.10;99.90
14008;DHT22;61651;45.508;12.232;2024-02-28T16:59:52;17.00;99.90
14008;DHT22;61651;45.508;12.232;2024-02-28T17:02:54;16.90;99.90
14008;DHT22;61651;45.508;12.232;2024-02-28T17:05:57;16.90;99.90
14008;DHT22;61651;45.508;12.232;2024-02-28T17:08:59;16.80;99.90
14008;DHT22;61651;45.508;12.232;2024-02-28T17:12:01;16.80;99.90
14008;DHT22;61651;45.508;12.232;2024-02-28T17:15:04;16.70;99.90
14008;DHT22;61651;45.508;12.232;2024-02-28T17:18:06;16.70;99.90
14008;DHT22;61651;45.508;12.232;2024-02-28T17:21:09;16.60;99.90
14008;DHT22;61651;45.508;12.232;2024-02-28T17:24:12;16.60;99.90
14008;DHT22;61651;45.508;12.232;2024-02-28T17:27:14;16.50;99.90
14008;DHT22;61651;45.508;12.232;2024-02-28T17:30:16;16.50;99.90
14008;DHT22;61651;45.508;12.232;2024-02-28T17:33:18;16.40;99.90
14008;DHT22;61651;45.508;12.232;2024-02-28T17:36:22;16.40;99.90
14008;DHT22;61651;45.508;12.232;2024-02-28T17:39:25;16.30;99.90
14008;DHT22;61651;45.508;12.232;2024-02-28T17:42:27;16.30;99.90
14008;DHT22;61651;45.508;12.232;2024-02-28T17:45:29;16.20;99.90
14008;DHT22;61651;45.508;12.232;2024-02-28T17:48:32;16.20;99.90
14008;DHT22;61651;45.508;12.232;2024-02-28T17:51:36;16.10;99.90
14008;DHT22;61651;45.508;12.232;2024-02-28T17:54:39;16.00;99.90
14008;DHT22;61651;45.508;12.232;2024-02-28T17:57:41;16.00;99.90
14008;DHT22;61651;45.508;12.232;2024-02-28T18:00:43;16.00;99.90
14008;DHT22;61651;45.508;12.232;2024-02-28T18:03:47;16.00;99.90
14008;DHT22;61651;45.508;12.232;2024-02-28T18:06:51;16.00;99.90
14008;DHT22;61651;45.508;12.232;2024-02-28T18:09:53;16.00;99.90
14008;DHT22;61651;45.508;12.232;2024-02-28T18:12:55;15.90;99.90
14008;DHT22;61651;45.508;12.232;2024-02-28T18:15:57;15.90;99.90
14008;DHT22;61651;45.508;12.232;2024-02-28T18:18:59;15.90;99.90
14008;DHT22;61651;45.508;12.232;2024-02-28T18:22:03;15.80;99.90
14008;DHT22;61651;45.508;12.232;2024-02-28T18:25:09;15.80;99.90
14008;DHT22;61651;45.508;12.232;2024-02-28T18:28:11;15.80;99.90
14008;DHT22;61651;45.508;12.232;2024-02-28T18:31:13;15.80;99.90
14008;DHT22;61651;45.508;12.232;2024-02-28T18:34:15;15.80;99.90
14008;DHT22;61651;45.508;12.232;2024-02-28T18:37:18;15.70;99.90
14008;DHT22;61651;45.508;12.232;2024-02-28T18:40:21;15.70;99.90
14008;DHT22;61651;45.508;12.232;2024-02-28T18:43:27;15.70;99.90
14008;DHT22;61651;45.508;12.232;2024-02-28T18:46:29;15.60;99.90
14008;DHT22;61651;45.508;12.232;2024-02-28T18:49:31;15.60;99.90
14008;DHT22;61651;45.508;12.232;2024-02-28T18:52:34;15.60;99.90